Matuku, Fiji
Current Conditions -  °F | °C
As of 8:00 AM on Tuesday 27 Jan 2015 (Local Time) from NFNA Reporting Station
Few Clouds Few Clouds  
Wind Chill: 79°   Ceiling: Unl
Heat Index: 82°   Visibility: 6mi
Dew Point: 75°   Wind: 0mph
Humidity: 89%   Direction: NA
Pressure: 29.62"   Gusts: NA
Location:  19.16°S, 179.76°E
Report Text: NFNA 262000Z 00000KT 9999 FEW022 26/24 Q1003
Loading
Personal Weather Stations






























Interactive Weather Map New forecast layout! Learn more

10-Day Weather Forecast

Advertisements
Track Severe Weather on mobile